createdAt,value
2023-02-11T00:01:09.285Z,28.38
2023-02-11T00:03:36.253Z,27.00
2023-02-11T00:06:05.755Z,28.45
2023-02-11T00:08:32.501Z,27.85
2023-02-11T00:10:59.210Z,28.17
2023-02-11T00:13:26.383Z,29.23
2023-02-11T00:15:54.429Z,28.30
2023-02-11T00:18:21.202Z,27.85
2023-02-11T00:20:48.040Z,29.23
2023-02-11T00:23:14.741Z,29.67
2023-02-11T00:25:45.301Z,29.02
2023-02-11T00:28:12.261Z,28.73
2023-02-11T00:30:40.927Z,28.60
2023-02-11T00:33:08.206Z,28.00
2023-02-11T00:35:37.633Z,31.27
2023-02-11T00:38:04.513Z,27.92
2023-02-11T00:40:31.516Z,31.80
2023-02-11T00:42:58.307Z,25.60
2023-02-11T00:45:25.035Z,29.58
2023-02-11T00:47:51.773Z,28.38
2023-02-11T00:50:18.466Z,26.20
2023-02-11T00:52:45.344Z,26.85
2023-02-11T00:55:12.062Z,27.27
2023-02-11T00:57:38.944Z,27.02
2023-02-11T01:00:06.801Z,28.33
2023-02-11T01:02:33.578Z,27.65
2023-02-11T01:05:00.906Z,28.83
2023-02-11T01:07:28.596Z,28.40
2023-02-11T01:09:55.498Z,28.23
2023-02-11T01:12:22.769Z,27.48
2023-02-11T01:14:49.608Z,27.85
2023-02-11T01:17:18.462Z,28.30
2023-02-11T01:19:45.169Z,28.17
2023-02-11T01:22:11.934Z,27.30
2023-02-11T01:24:38.693Z,28.15
2023-02-11T01:27:07.441Z,27.88
2023-02-11T01:29:34.326Z,29.05
2023-02-11T01:32:01.268Z,27.90
2023-02-11T01:34:28.267Z,27.40
2023-02-11T01:37:00.923Z,26.50
2023-02-11T01:39:29.093Z,28.85
2023-02-11T01:41:55.827Z,30.60
2023-02-11T01:44:26.209Z,29.10
2023-02-11T01:46:53.711Z,28.23
2023-02-11T01:49:28.015Z,29.67
2023-02-11T01:52:01.629Z,27.55
2023-02-11T01:54:49.766Z,28.50
2023-02-11T01:57:25.289Z,28.58
2023-02-11T02:00:12.209Z,30.38
2023-02-11T02:02:56.567Z,29.55
2023-02-11T02:06:04.283Z,31.65
2023-02-11T02:08:55.076Z,29.67
2023-02-11T02:11:21.766Z,31.15
2023-02-11T02:13:49.220Z,27.20
2023-02-11T02:16:18.756Z,30.33
2023-02-11T02:18:56.638Z,32.72
2023-02-11T02:21:52.634Z,30.85
2023-02-11T02:25:00.974Z,29.98
2023-02-11T02:27:38.283Z,27.48
2023-02-11T02:30:17.156Z,28.42
2023-02-11T02:32:49.100Z,28.45
2023-02-11T02:35:25.718Z,30.02
2023-02-11T02:38:08.761Z,28.48
2023-02-11T02:40:45.802Z,28.60
2023-02-11T02:43:13.988Z,27.92
2023-02-11T02:45:40.831Z,28.95
2023-02-11T02:48:07.576Z,29.15
2023-02-11T02:50:36.611Z,30.45
2023-02-11T02:53:12.053Z,27.55
2023-02-11T02:55:38.781Z,30.58
2023-02-11T02:58:15.810Z,31.38
2023-02-11T03:00:55.892Z,29.48
2023-02-11T03:03:49.339Z,30.58
2023-02-11T03:06:46.916Z,30.48
2023-02-11T03:09:22.344Z,27.60
2023-02-11T03:11:49.182Z,31.00
2023-02-11T03:14:18.625Z,30.13
2023-02-11T03:16:46.583Z,30.90
2023-02-11T03:19:17.972Z,29.83
2023-02-11T03:21:45.236Z,30.90
2023-02-11T03:24:20.445Z,30.80
2023-02-11T03:26:50.686Z,29.67
2023-02-11T03:29:39.436Z,29.33
2023-02-11T03:32:15.963Z,30.05
2023-02-11T03:35:15.785Z,29.73
2023-02-11T03:37:51.349Z,30.45
2023-02-11T03:40:29.922Z,29.15
2023-02-11T03:43:03.545Z,30.67
2023-02-11T03:45:30.656Z,30.35
2023-02-11T03:48:03.358Z,30.20
2023-02-11T03:50:32.443Z,30.85
2023-02-11T03:53:01.329Z,31.10
2023-02-11T03:55:28.969Z,31.33
2023-02-11T03:57:56.183Z,30.95
2023-02-11T04:00:33.834Z,29.33
2023-02-11T04:03:00.702Z,31.40
2023-02-11T04:05:27.387Z,32.58
2023-02-11T04:07:54.064Z,32.42
2023-02-11T04:10:20.866Z,32.63
2023-02-11T04:12:47.716Z,31.45
2023-02-11T04:15:14.689Z,31.15
2023-02-11T04:17:41.558Z,31.95
2023-02-11T04:20:09.219Z,33.13
2023-02-11T04:22:36.280Z,32.60
2023-02-11T04:25:04.295Z,31.15
2023-02-11T04:27:31.038Z,31.63
2023-02-11T04:29:57.777Z,31.98
2023-02-11T04:32:24.492Z,32.42
2023-02-11T04:34:51.869Z,31.55
2023-02-11T04:37:18.525Z,34.65
2023-02-11T04:39:45.247Z,38.17
2023-02-11T04:42:12.200Z,34.95
2023-02-11T04:44:38.982Z,33.22
2023-02-11T04:47:05.633Z,33.78
2023-02-11T04:49:32.308Z,34.28
2023-02-11T04:51:59.004Z,32.58
2023-02-11T04:54:25.706Z,33.85
2023-02-11T04:56:52.524Z,33.20
2023-02-11T04:59:19.386Z,31.75
2023-02-11T05:01:46.164Z,34.97
2023-02-11T05:04:13.025Z,33.72
2023-02-11T05:06:39.894Z,34.80
2023-02-11T05:09:06.619Z,34.10
2023-02-11T05:11:33.477Z,33.03
2023-02-11T05:14:00.386Z,35.13
2023-02-11T05:16:28.156Z,31.75
2023-02-11T05:18:55.774Z,35.25
2023-02-11T05:21:22.853Z,33.58
2023-02-11T05:23:49.554Z,35.92
2023-02-11T05:26:16.659Z,34.58
2023-02-11T05:28:44.328Z,34.88
2023-02-11T05:31:11.888Z,33.75
2023-02-11T05:33:38.644Z,32.85
2023-02-11T05:36:11.187Z,34.90
2023-02-11T05:38:38.485Z,33.60
2023-02-11T05:41:06.059Z,33.20
2023-02-11T05:43:34.756Z,32.75
2023-02-11T05:46:01.640Z,33.35
2023-02-11T05:48:28.379Z,33.90
2023-02-11T05:50:55.128Z,32.95
2023-02-11T05:53:21.942Z,35.05
2023-02-11T05:55:48.959Z,34.78
2023-02-11T05:58:15.898Z,33.50
2023-02-11T06:00:42.675Z,33.88
2023-02-11T06:03:09.431Z,35.25
2023-02-11T06:05:36.136Z,34.97
2023-02-11T06:08:02.860Z,35.42
2023-02-11T06:10:29.617Z,34.75
2023-02-11T06:12:56.313Z,33.95
2023-02-11T06:15:23.064Z,31.75
2023-02-11T06:17:49.741Z,35.38
2023-02-11T06:20:16.613Z,35.35
2023-02-11T06:22:43.260Z,35.00
2023-02-11T06:25:11.159Z,34.45
2023-02-11T06:27:38.338Z,36.20
2023-02-11T06:30:07.043Z,37.72
2023-02-11T06:32:49.600Z,47.15
2023-02-11T06:35:16.440Z,39.42
2023-02-11T06:37:43.433Z,40.00
2023-02-11T06:40:11.463Z,35.65
2023-02-11T06:42:39.218Z,36.92
2023-02-11T06:45:08.975Z,37.47
2023-02-11T06:47:35.675Z,36.13
2023-02-11T06:50:02.367Z,35.55
2023-02-11T06:52:29.122Z,36.80
2023-02-11T06:54:55.806Z,37.90
2023-02-11T06:57:22.794Z,36.97
2023-02-11T06:59:49.538Z,36.55
2023-02-11T07:02:18.469Z,35.75
2023-02-11T07:04:46.393Z,36.63
2023-02-11T07:07:13.152Z,37.20
2023-02-11T07:09:39.844Z,38.28
2023-02-11T07:12:06.719Z,37.72
2023-02-11T07:14:33.456Z,37.33
2023-02-11T07:17:00.239Z,36.45
2023-02-11T07:19:26.995Z,36.03
2023-02-11T07:21:54.209Z,38.38
2023-02-11T07:24:20.955Z,38.58
2023-02-11T07:26:47.635Z,39.50
2023-02-11T07:29:14.388Z,38.25
2023-02-11T07:31:41.118Z,36.20
2023-02-11T07:34:07.869Z,37.55
2023-02-11T07:36:34.613Z,38.00
2023-02-11T07:39:03.990Z,38.05
2023-02-11T07:41:30.849Z,37.13
2023-02-11T07:43:57.611Z,40.53
2023-02-11T07:46:26.447Z,37.13
2023-02-11T07:48:53.550Z,36.50
2023-02-11T07:51:25.661Z,36.97
2023-02-11T07:53:53.327Z,37.85
2023-02-11T07:56:20.723Z,37.03
2023-02-11T07:58:47.853Z,38.33
2023-02-11T08:01:22.685Z,39.00
2023-02-11T08:03:49.600Z,40.35
2023-02-11T08:06:18.814Z,39.35
2023-02-11T08:08:45.664Z,38.05
2023-02-11T08:11:15.235Z,42.03
2023-02-11T08:13:42.643Z,42.85
2023-02-11T08:16:10.555Z,42.55
2023-02-11T08:18:37.251Z,42.60
2023-02-11T08:21:05.926Z,43.58
2023-02-11T08:23:32.797Z,42.35
2023-02-11T08:26:03.788Z,40.95
2023-02-11T08:28:30.616Z,39.42
2023-02-11T08:30:57.410Z,40.08
2023-02-11T08:33:24.166Z,39.22
2023-02-11T08:35:50.893Z,38.92
2023-02-11T08:38:17.491Z,39.08
2023-02-11T08:40:44.187Z,39.53
2023-02-11T08:43:10.829Z,40.67
2023-02-11T08:45:37.544Z,40.97
2023-02-11T08:48:04.425Z,40.45
2023-02-11T08:50:32.239Z,38.90
2023-02-11T08:52:58.893Z,39.30
2023-02-11T08:55:25.802Z,37.60
2023-02-11T08:57:52.423Z,38.53
2023-02-11T09:00:19.461Z,37.17
2023-02-11T09:02:46.244Z,38.80
2023-02-11T09:05:12.910Z,36.15
2023-02-11T09:07:39.608Z,38.60
2023-02-11T09:10:06.629Z,38.67
2023-02-11T09:12:33.419Z,41.60
2023-02-11T09:15:00.118Z,41.75
2023-02-11T09:17:26.817Z,40.63
2023-02-11T09:19:53.483Z,41.33
2023-02-11T09:22:20.121Z,37.72
2023-02-11T09:24:46.748Z,41.13
2023-02-11T09:27:13.434Z,42.25
2023-02-11T09:29:40.112Z,39.20
2023-02-11T09:32:09.755Z,36.75
2023-02-11T09:34:36.802Z,34.67
2023-02-11T09:37:03.529Z,35.78
2023-02-11T09:39:30.258Z,35.80
2023-02-11T09:42:30.346Z,35.78
2023-02-11T09:44:57.833Z,31.85
2023-02-11T09:47:32.309Z,34.88
2023-02-11T09:50:02.702Z,32.25
2023-02-11T09:52:38.391Z,31.25
2023-02-11T09:55:14.819Z,30.75
2023-02-11T09:57:41.475Z,27.38
2023-02-11T10:00:43.760Z,28.10
2023-02-11T10:03:48.097Z,26.70
2023-02-11T10:06:21.043Z,28.90
2023-02-11T10:08:53.646Z,26.60
2023-02-11T10:11:31.231Z,26.50
2023-02-11T10:14:13.000Z,25.58
2023-02-11T10:17:05.349Z,23.27
2023-02-11T10:19:59.398Z,26.60
2023-02-11T10:22:31.332Z,26.30
2023-02-11T10:25:00.271Z,25.42
2023-02-11T10:27:31.878Z,26.50
2023-02-11T10:30:08.094Z,25.45
2023-02-11T10:33:19.304Z,26.02
2023-02-11T10:35:46.252Z,26.15
2023-02-11T10:38:13.124Z,27.38
2023-02-11T10:40:40.736Z,23.35
2023-02-11T10:43:13.956Z,25.90
2023-02-11T10:48:44.112Z,26.05
2023-02-11T10:51:13.418Z,23.48
2023-02-11T10:53:41.076Z,26.25
2023-02-11T10:56:11.899Z,26.20
2023-02-11T10:58:44.973Z,24.55
2023-02-11T11:01:23.927Z,23.63
2023-02-11T11:03:52.651Z,26.00
2023-02-11T11:06:32.605Z,26.23
2023-02-11T11:08:59.466Z,25.65
2023-02-11T11:11:27.085Z,27.88
2023-02-11T11:13:56.376Z,29.20
2023-02-11T11:16:28.881Z,27.25
2023-02-11T11:19:07.745Z,26.88
2023-02-11T11:21:44.470Z,26.58
2023-02-11T11:24:22.164Z,27.50
2023-02-11T11:26:54.495Z,27.15
2023-02-11T11:29:48.335Z,29.40
2023-02-11T11:34:51.140Z,27.52
2023-02-11T11:37:24.340Z,27.55
2023-02-11T11:42:31.292Z,29.02
2023-02-11T11:45:25.722Z,28.35
2023-02-11T11:48:31.840Z,29.48
2023-02-11T11:51:01.701Z,31.50
2023-02-11T11:53:30.990Z,28.20
2023-02-11T11:56:33.908Z,31.60
2023-02-11T11:59:03.680Z,27.85
2023-02-11T12:01:48.889Z,30.95
2023-02-11T12:04:24.525Z,29.98
2023-02-11T12:07:14.619Z,27.88
2023-02-11T12:09:58.867Z,29.80
2023-02-11T12:12:49.250Z,30.40
2023-02-11T12:15:29.585Z,31.02
2023-02-11T12:18:14.819Z,29.40
2023-02-11T12:20:54.908Z,27.67
2023-02-11T12:23:37.571Z,29.42
2023-02-11T12:26:19.562Z,31.38
2023-02-11T12:29:01.094Z,31.50
2023-02-11T12:31:53.067Z,29.40
2023-02-11T12:34:38.027Z,29.55
2023-02-11T12:37:42.727Z,31.00
2023-02-11T12:40:21.748Z,28.80
2023-02-11T12:43:17.197Z,29.83
2023-02-11T12:46:05.504Z,30.02
2023-02-11T12:49:11.872Z,28.77
2023-02-11T12:51:50.309Z,29.10
2023-02-11T12:54:19.681Z,29.30
2023-02-11T12:56:55.878Z,31.40
2023-02-11T12:59:28.475Z,29.92
2023-02-11T13:01:55.842Z,27.70
2023-02-11T13:04:25.529Z,31.83
2023-02-11T13:06:57.195Z,30.73
2023-02-11T13:09:27.131Z,29.17
2023-02-11T13:11:58.252Z,27.88
2023-02-11T13:14:32.685Z,28.77
2023-02-11T13:16:59.672Z,29.38
2023-02-11T13:19:34.824Z,28.35
2023-02-11T13:22:20.170Z,28.17
2023-02-11T13:24:58.184Z,26.45
2023-02-11T13:27:42.666Z,27.80
2023-02-11T13:30:26.832Z,29.08
2023-02-11T13:32:56.575Z,30.05
2023-02-11T13:35:33.458Z,28.55
2023-02-11T13:38:05.380Z,27.42
2023-02-11T13:40:35.519Z,27.95
2023-02-11T13:43:04.317Z,28.38
2023-02-11T13:45:36.403Z,28.55
2023-02-11T13:48:06.276Z,27.92
2023-02-11T13:50:38.132Z,28.42
2023-02-11T13:53:07.134Z,30.20
2023-02-11T13:55:34.856Z,28.00
2023-02-11T13:58:07.634Z,26.10
2023-02-11T14:00:34.251Z,27.80
2023-02-11T14:03:46.884Z,28.77
2023-02-11T14:06:51.614Z,27.00
2023-02-11T14:09:18.259Z,25.48
2023-02-11T14:11:51.542Z,26.17
2023-02-11T14:14:36.017Z,24.70
2023-02-11T14:17:09.108Z,26.30
2023-02-11T14:19:37.998Z,25.05
2023-02-11T14:22:06.312Z,27.85
2023-02-11T14:24:32.905Z,27.90
2023-02-11T14:27:07.131Z,26.63
2023-02-11T14:29:50.962Z,24.90
2023-02-11T14:32:38.008Z,26.88
2023-02-11T14:35:32.692Z,26.30
2023-02-11T14:38:35.064Z,26.77
2023-02-11T14:41:07.478Z,26.92
2023-02-11T14:43:43.399Z,24.77
2023-02-11T14:46:10.145Z,27.70
2023-02-11T14:48:38.104Z,27.95
2023-02-11T14:51:07.633Z,27.90
2023-02-11T14:53:34.736Z,27.20
2023-02-11T14:56:01.423Z,26.13
2023-02-11T14:58:30.581Z,25.15
2023-02-11T15:00:58.408Z,23.85
2023-02-11T15:03:30.104Z,26.75
2023-02-11T15:06:21.345Z,25.80
2023-02-11T15:08:53.648Z,25.75
2023-02-11T15:11:22.584Z,26.35
2023-02-11T15:13:50.279Z,27.05
2023-02-11T15:16:20.813Z,26.02
2023-02-11T15:18:51.765Z,28.58
2023-02-11T15:21:27.193Z,26.63
2023-02-11T15:24:06.314Z,26.30
2023-02-11T15:26:33.466Z,25.30
2023-02-11T15:29:00.254Z,24.05
2023-02-11T15:31:28.514Z,25.65
2023-02-11T15:33:55.332Z,24.52
2023-02-11T15:36:28.451Z,24.70
2023-02-11T15:41:40.558Z,23.42
2023-02-11T15:44:26.873Z,22.05
2023-02-11T15:46:53.607Z,25.13
2023-02-11T15:49:21.374Z,22.48
2023-02-11T15:51:48.116Z,22.63
2023-02-11T15:54:20.697Z,23.10
2023-02-11T15:56:59.716Z,22.90
2023-02-11T15:59:32.291Z,25.45
2023-02-11T16:02:06.943Z,25.60
2023-02-11T16:04:33.840Z,25.00
2023-02-11T16:07:00.639Z,22.15
2023-02-11T16:09:31.824Z,22.70
2023-02-11T16:12:00.772Z,22.85
2023-02-11T16:14:27.375Z,21.60
2023-02-11T16:17:00.789Z,20.80
2023-02-11T16:19:28.558Z,19.88
2023-02-11T16:21:56.902Z,20.92
2023-02-11T16:24:34.444Z,19.23
2023-02-11T16:27:06.983Z,18.92
2023-02-11T16:29:36.421Z,20.70
2023-02-11T16:32:20.792Z,18.05
2023-02-11T16:34:47.676Z,20.52
2023-02-11T16:37:16.609Z,18.63
2023-02-11T16:39:43.314Z,21.50
2023-02-11T16:42:13.274Z,22.40
2023-02-11T16:44:40.011Z,24.00
2023-02-11T16:47:08.150Z,26.23
2023-02-11T16:49:37.315Z,20.73
2023-02-11T16:52:08.069Z,23.05
2023-02-11T16:54:35.056Z,21.20
2023-02-11T16:57:05.392Z,25.45
2023-02-11T16:59:32.225Z,28.20
2023-02-11T17:01:59.270Z,28.20
2023-02-11T17:04:29.467Z,27.40
2023-02-11T17:06:58.538Z,25.67
2023-02-11T17:09:30.289Z,25.73
2023-02-11T17:11:57.602Z,25.08
2023-02-11T17:14:24.718Z,30.23
2023-02-11T17:16:51.792Z,27.63
2023-02-11T17:19:21.143Z,29.60
2023-02-11T17:21:50.675Z,28.48
2023-02-11T17:24:18.443Z,29.83
2023-02-11T17:26:45.780Z,30.52
2023-02-11T17:29:17.792Z,30.45
2023-02-11T17:31:44.893Z,27.17
2023-02-11T17:34:11.951Z,25.67
2023-02-11T17:36:41.297Z,26.17
2023-02-11T17:39:08.513Z,24.98
2023-02-11T17:41:37.008Z,27.08
2023-02-11T17:44:04.757Z,27.58
2023-02-11T17:46:32.421Z,25.77
2023-02-11T17:48:59.682Z,33.95
2023-02-11T17:51:29.202Z,33.80
2023-02-11T17:53:58.239Z,32.05
2023-02-11T17:56:25.047Z,38.50
2023-02-11T17:58:53.109Z,39.00
2023-02-11T18:01:20.353Z,34.65
2023-02-11T18:03:47.357Z,28.95
2023-02-11T18:06:14.122Z,28.13
2023-02-11T18:08:43.078Z,28.85
2023-02-11T18:11:11.770Z,30.30
2023-02-11T18:13:39.041Z,29.73
2023-02-11T18:16:06.266Z,36.50
2023-02-11T18:18:33.073Z,37.28
2023-02-11T18:21:02.972Z,33.50
2023-02-11T18:23:29.809Z,36.50
2023-02-11T18:25:56.803Z,33.78
2023-02-11T18:28:23.776Z,33.15
2023-02-11T18:30:57.612Z,33.67
2023-02-11T18:33:24.637Z,36.72
2023-02-11T18:35:51.667Z,32.08
2023-02-11T18:38:22.748Z,31.00
2023-02-11T18:40:52.908Z,31.85
2023-02-11T18:43:20.135Z,32.85
2023-02-11T18:45:47.704Z,30.85
2023-02-11T18:48:14.768Z,29.27
2023-02-11T18:50:45.816Z,30.80
2023-02-11T18:53:13.979Z,31.70
2023-02-11T18:55:42.491Z,33.25
2023-02-11T18:58:09.850Z,30.90
2023-02-11T19:00:39.361Z,30.13
2023-02-11T19:03:06.089Z,33.88
2023-02-11T19:05:35.597Z,30.70
2023-02-11T19:08:02.379Z,33.55
2023-02-11T19:10:30.700Z,33.13
2023-02-11T19:12:58.946Z,38.85
2023-02-11T19:15:26.253Z,34.38
2023-02-11T19:17:53.160Z,35.70
2023-02-11T19:20:20.119Z,34.90
2023-02-11T19:22:46.943Z,35.10
2023-02-11T19:25:13.925Z,34.63
2023-02-11T19:27:43.513Z,33.47
2023-02-11T19:30:11.086Z,29.65
2023-02-11T19:32:37.775Z,35.90
2023-02-11T19:35:04.662Z,36.42
2023-02-11T19:37:31.479Z,35.33
2023-02-11T19:39:58.386Z,41.83
2023-02-11T19:42:27.575Z,34.58
2023-02-11T19:44:54.600Z,37.47
2023-02-11T19:47:27.687Z,35.53
2023-02-11T19:52:21.435Z,36.90
2023-02-11T19:54:48.259Z,34.63
2023-02-11T19:57:15.072Z,33.28
2023-02-11T19:59:41.900Z,35.03
2023-02-11T20:02:11.219Z,36.90
2023-02-11T20:04:37.991Z,38.42
2023-02-11T20:07:04.968Z,38.88
2023-02-11T20:09:31.822Z,36.33
2023-02-11T20:11:59.113Z,37.30
2023-02-11T20:14:27.915Z,39.55
2023-02-11T20:16:54.903Z,40.83
2023-02-11T20:19:22.164Z,41.58
2023-02-11T20:21:51.411Z,47.95
2023-02-11T20:24:18.684Z,46.50
2023-02-11T20:26:48.050Z,40.17
2023-02-11T20:29:16.367Z,43.03
2023-02-11T20:31:43.412Z,38.72
2023-02-11T20:34:10.445Z,40.15
2023-02-11T20:36:38.699Z,36.05
2023-02-11T20:39:06.132Z,37.33
2023-02-11T20:41:34.841Z,36.35
2023-02-11T20:44:06.980Z,37.65
2023-02-11T20:46:34.377Z,36.30
2023-02-11T20:49:01.779Z,34.45
2023-02-11T20:51:30.650Z,39.58
2023-02-11T20:53:57.547Z,36.65
2023-02-11T20:56:26.787Z,38.33
2023-02-11T20:58:53.517Z,44.63
2023-02-11T21:01:23.322Z,47.03
2023-02-11T21:03:54.599Z,42.22
2023-02-11T21:06:23.593Z,41.20
2023-02-11T21:08:50.425Z,39.67
2023-02-11T21:11:17.477Z,39.58
2023-02-11T21:13:44.694Z,40.85
2023-02-11T21:16:15.872Z,42.50
2023-02-11T21:18:42.728Z,36.17
2023-02-11T21:21:09.642Z,38.20
2023-02-11T21:23:36.381Z,40.47
2023-02-11T21:26:03.179Z,36.47
2023-02-11T21:28:30.066Z,43.58
2023-02-11T21:30:57.395Z,42.55
2023-02-11T21:33:26.160Z,45.63
2023-02-11T21:36:03.675Z,42.83
2023-02-11T21:38:30.984Z,44.05
2023-02-11T21:41:05.497Z,38.92
2023-02-11T21:43:32.429Z,42.83
2023-02-11T21:45:59.715Z,45.10
2023-02-11T21:48:27.018Z,42.17
2023-02-11T21:50:54.015Z,45.70
2023-02-11T21:53:20.773Z,42.95
2023-02-11T21:55:47.572Z,45.42
2023-02-11T21:58:14.601Z,41.10
2023-02-11T22:00:41.464Z,38.00
2023-02-11T22:03:08.278Z,39.67
2023-02-11T22:05:35.058Z,40.83
2023-02-11T22:08:01.756Z,39.83
2023-02-11T22:10:28.536Z,42.17
2023-02-11T22:12:55.324Z,44.92
2023-02-11T22:15:22.007Z,43.58
2023-02-11T22:17:48.695Z,41.42
2023-02-11T22:20:16.864Z,45.58
2023-02-11T22:22:43.577Z,41.33
2023-02-11T22:25:10.386Z,46.25
2023-02-11T22:27:37.126Z,43.80
2023-02-11T22:30:04.652Z,48.17
2023-02-11T22:32:31.331Z,48.88
2023-02-11T22:34:58.029Z,45.28
2023-02-11T22:37:24.783Z,43.33
2023-02-11T22:39:51.516Z,45.08
2023-02-11T22:42:18.215Z,41.40
2023-02-11T22:44:44.996Z,42.92
2023-02-11T22:47:11.753Z,40.95
2023-02-11T22:49:40.221Z,45.78
2023-02-11T22:52:06.928Z,42.47
2023-02-11T22:54:33.660Z,42.78
2023-02-11T22:57:00.373Z,44.35
2023-02-11T22:59:27.130Z,44.90
2023-02-11T23:01:53.918Z,41.03
2023-02-11T23:04:20.928Z,43.55
2023-02-11T23:06:47.747Z,46.67
2023-02-11T23:09:14.512Z,45.72
2023-02-11T23:11:41.624Z,46.10
2023-02-11T23:14:10.052Z,42.58
2023-02-11T23:16:36.880Z,42.55
2023-02-11T23:19:07.097Z,43.30
2023-02-11T23:21:36.965Z,42.92
2023-02-11T23:24:09.969Z,44.30
2023-02-11T23:26:40.763Z,43.08
2023-02-11T23:29:07.801Z,41.20
2023-02-11T23:31:40.376Z,40.55
2023-02-11T23:34:08.061Z,45.15
2023-02-11T23:36:34.800Z,42.47
2023-02-11T23:39:01.600Z,37.55
2023-02-11T23:41:28.418Z,42.10
2023-02-11T23:43:57.098Z,38.10
2023-02-11T23:46:25.509Z,42.28
2023-02-11T23:48:53.036Z,39.50
2023-02-11T23:51:20.037Z,40.85
2023-02-11T23:53:49.096Z,39.33
2023-02-11T23:56:21.364Z,41.78
2023-02-11T23:58:49.417Z,45.85
